Orangeburg, SC (29115)

4:25 PM EST on November 19, 2017 (GMT -0500)
Orangeburg Municipal | | Change Station
Active Advisory: Frost Advisory

Elev 194 ft 33.46 °N, 80.86 °W | Updated 32 minutes ago

Clear
Clear
64 °F
Feels Like 64 °F
N
10
Wind Variable Wind from NW

Today
High -- | Low -- °F
--% Chance of Precip.
Yesterday
High -- | Low -- °F
Precip. -- in
Pressure 29.89 in
Visibility 10.0 miles
Clouds Clear
Dew Point 35 °F
Humidity 34%
Rainfall 0.02 in
Snow Depth Not available.
6:58 AM 5:18 PM
New Moon, 2% visible
METAR KOGB 192053Z AUTO 31009KT 10SM CLR 18/02 A2989 RMK AO2 SLP120 T01780017 53004
Pressure 29.89 in
Visibility 10.0 miles
Clouds Clear
Dew Point 35 °F
Humidity 34%
Rainfall 0.02 in
Snow Depth Not available.
6:58 AM 5:18 PM
New Moon, 2% visible
METAR KOGB 192053Z AUTO 31009KT 10SM CLR 18/02 A2989 RMK AO2 SLP120 T01780017 53004

Get Your Daily Forecast Email!

Thanks for signing up!

Be on the lookout for a verification email in your inbox.

You'll start receiving severe weather alerts in your inbox..

×

10-Day Weather Forecast

Almanac

Astronomy

Nov. 19, 2017 Rise Set
Actual Time
Civil Twilight
Nautical Twilight
Astronomical Twilight
Moon
Length of Visible Light
Length of Day
Tomorrow will be .
, % of the Moon is Illuminated

Today's Extremes

State Highs State Lows

Community

WunderPhotos

Category 6

Welcome to Category 6. This is the collective home for Weather Underground's featured writeups by Dr. Jeff Masters (right), Bob Henson (left), Chris Burt, and other regular contributors.

Nearby

Air Quality

  Air Quality AQ Index Pollutant
Not available.

Snow Depth

Station Depth Elevation

Earthquake Activity

City Distance Mag. Time & Date
Minimum magnitude displayed is 2.5.

Coastal Water Temperatures

Place Temperature

Stations

Nearby Weather Stations

Station Location Temp. Windchill Dew Point Humidity Wind Precip. Elev Updated Type
                   

Watches & Warnings

Frost Advisory
Issued: 1:34 PM EST Nov. 19, 2017 – National Weather Service

... Frost advisory in effect from 4 am to 9 am EST Monday...

The National Weather Service in Columbia has issued a frost
advisory, which is in effect from 4 am to 9 am EST Monday.

* Temperature... low temperatures in the mid 30s.

* Impacts... sensitive outdoor plants may be killed if left
uncovered.

Precautionary/preparedness actions...

A frost advisory means that widespread frost is expected.
Sensitive outdoor plants may be killed if left uncovered.
Ensure livestock and any outdoor pets have shelter from the cold.